createdAt,value
2022-09-25T00:01:18.294Z,99720.81
2022-09-25T00:03:45.925Z,99726.06
2022-09-25T00:06:21.662Z,99715.12
2022-09-25T00:08:49.719Z,99712.44
2022-09-25T00:11:23.902Z,99708.09
2022-09-25T00:13:51.473Z,99715.06
2022-09-25T00:16:21.873Z,99710.53
2022-09-25T00:19:07.961Z,99709.72
2022-09-25T00:21:36.498Z,99707.41
2022-09-25T00:24:07.177Z,99708.28
2022-09-25T00:26:37.291Z,99700.44
2022-09-25T00:29:06.124Z,99696.13
2022-09-25T00:31:34.020Z,99703.75
2022-09-25T00:34:04.265Z,99697.00
2022-09-25T00:36:32.576Z,99698.47
2022-09-25T00:39:00.117Z,99693.47
2022-09-25T00:41:30.078Z,99697.72
2022-09-25T00:43:59.382Z,99693.06
2022-09-25T00:46:39.312Z,99691.31
2022-09-25T00:49:13.360Z,99691.53
2022-09-25T00:51:54.455Z,99695.91
2022-09-25T00:54:27.388Z,99694.38
2022-09-25T00:56:56.472Z,99691.53
2022-09-25T00:59:27.893Z,99693.12
2022-09-25T01:01:55.680Z,99688.03
2022-09-25T01:04:23.134Z,99692.44
2022-09-25T01:06:50.749Z,99691.53
2022-09-25T01:09:18.443Z,99696.72
2022-09-25T01:11:46.204Z,99685.44
2022-09-25T01:14:17.372Z,99688.91
2022-09-25T01:16:51.058Z,99676.94
2022-09-25T01:19:53.028Z,99675.69
2022-09-25T01:22:29.567Z,99683.41
2022-09-25T01:25:12.192Z,99684.31
2022-09-25T01:27:41.316Z,99683.47
2022-09-25T01:30:12.338Z,99696.78
2022-09-25T01:33:04.525Z,99681.06
2022-09-25T01:35:37.619Z,99681.81
2022-09-25T01:38:23.100Z,99682.72
2022-09-25T01:41:18.852Z,99687.81
2022-09-25T01:44:15.913Z,99690.59
2022-09-25T01:46:54.413Z,99679.06
2022-09-25T01:49:32.612Z,99682.75
2022-09-25T01:52:01.914Z,99687.31
2022-09-25T01:54:40.161Z,99687.87
2022-09-25T01:57:14.353Z,99678.97
2022-09-25T01:59:45.647Z,99673.84
2022-09-25T02:02:19.178Z,99675.69
2022-09-25T02:04:52.064Z,99673.28
2022-09-25T02:07:24.165Z,99670.72
2022-09-25T02:09:52.540Z,99669.06
2022-09-25T02:12:40.864Z,99674.16
2022-09-25T02:15:34.598Z,99660.09
2022-09-25T02:18:22.590Z,99665.53
2022-09-25T02:21:00.151Z,99668.53
2022-09-25T02:23:37.961Z,99671.97
2022-09-25T02:26:08.977Z,99679.91
2022-09-25T02:28:36.447Z,99680.72
2022-09-25T02:31:08.128Z,99680.81
2022-09-25T02:33:35.987Z,99686.09
2022-09-25T02:36:04.514Z,99682.66
2022-09-25T02:38:33.535Z,99673.13
2022-09-25T02:41:07.589Z,99676.75
2022-09-25T02:43:46.052Z,99676.75
2022-09-25T02:46:16.080Z,99680.28
2022-09-25T02:48:57.340Z,99677.09
2022-09-25T02:52:04.749Z,99676.91
2022-09-25T02:55:01.842Z,99682.03
2022-09-25T02:57:47.486Z,99676.31
2022-09-25T03:00:15.151Z,99660.59
2022-09-25T03:02:48.140Z,99663.03
2022-09-25T03:05:19.378Z,99664.00
2022-09-25T03:08:05.830Z,99664.19
2022-09-25T03:10:35.612Z,99658.84
2022-09-25T03:13:33.122Z,99657.31
2022-09-25T03:16:16.396Z,99663.22
2022-09-25T03:18:44.455Z,99649.31
2022-09-25T03:21:11.966Z,99655.41
2022-09-25T03:23:39.811Z,99651.16
2022-09-25T03:26:07.977Z,99644.94
2022-09-25T03:28:35.449Z,99642.94
2022-09-25T03:31:06.213Z,99649.16
2022-09-25T03:33:36.233Z,99658.84
2022-09-25T03:36:12.171Z,99649.22
2022-09-25T03:38:43.881Z,99650.94
2022-09-25T03:41:13.074Z,99647.44
2022-09-25T03:43:42.019Z,99655.31
2022-09-25T03:46:12.297Z,99657.78
2022-09-25T03:48:40.189Z,99663.84
2022-09-25T03:51:08.909Z,99669.12
2022-09-25T03:53:36.674Z,99673.50
2022-09-25T03:56:12.343Z,99675.25
2022-09-25T03:58:40.244Z,99674.38
2022-09-25T04:01:07.892Z,99679.69
2022-09-25T04:03:35.553Z,99686.75
2022-09-25T04:06:07.102Z,99677.03
2022-09-25T04:08:36.084Z,99672.53
2022-09-25T04:11:04.116Z,99674.97
2022-09-25T04:13:35.243Z,99672.53
2022-09-25T04:16:04.919Z,99667.34
2022-09-25T04:18:33.025Z,99671.69
2022-09-25T04:21:01.643Z,99666.59
2022-09-25T04:23:29.159Z,99657.66
2022-09-25T04:25:57.118Z,99654.19
2022-09-25T04:28:24.960Z,99665.50
2022-09-25T04:30:52.501Z,99654.28
2022-09-25T04:33:38.910Z,99661.22
2022-09-25T04:36:06.540Z,99660.28
2022-09-25T04:38:34.242Z,99653.94
2022-09-25T04:41:01.940Z,99647.94
2022-09-25T04:43:30.356Z,99661.91
2022-09-25T04:46:02.428Z,99654.81
2022-09-25T04:48:30.300Z,99654.88
2022-09-25T04:50:58.274Z,99659.19
2022-09-25T04:53:27.193Z,99657.28
2022-09-25T04:55:55.190Z,99672.03
2022-09-25T04:58:22.732Z,99669.62
2022-09-25T05:00:50.236Z,99672.44
2022-09-25T05:03:17.628Z,99672.34
2022-09-25T05:05:45.298Z,99670.38
2022-09-25T05:08:12.595Z,99671.97
2022-09-25T05:10:40.228Z,99665.09
2022-09-25T05:13:09.454Z,99662.53
2022-09-25T05:15:38.903Z,99664.00
2022-09-25T05:18:09.170Z,99654.28
2022-09-25T05:20:36.769Z,99659.69
2022-09-25T05:23:04.361Z,99651.84
2022-09-25T05:25:32.170Z,99660.47
2022-09-25T05:28:00.899Z,99660.41
2022-09-25T05:30:30.620Z,99667.34
2022-09-25T05:33:00.945Z,99665.53
2022-09-25T05:35:31.291Z,99670.66
2022-09-25T05:37:58.912Z,99660.19
2022-09-25T05:40:26.752Z,99669.62
2022-09-25T05:42:55.339Z,99669.62
2022-09-25T05:45:23.840Z,99680.13
2022-09-25T05:48:09.332Z,99683.34
2022-09-25T05:50:37.163Z,99685.09
2022-09-25T05:53:05.278Z,99685.09
2022-09-25T05:55:32.689Z,99684.09
2022-09-25T05:58:02.382Z,99681.44
2022-09-25T06:00:32.821Z,99677.88
2022-09-25T06:03:01.811Z,99676.62
2022-09-25T06:05:29.281Z,99679.00
2022-09-25T06:07:56.727Z,99689.19
2022-09-25T06:10:28.149Z,99698.22
2022-09-25T06:12:59.310Z,99695.50
2022-09-25T06:15:30.101Z,99698.88
2022-09-25T06:17:57.405Z,99704.69
2022-09-25T06:20:25.123Z,99703.66
2022-09-25T06:22:54.279Z,99708.72
2022-09-25T06:25:23.938Z,99706.09
2022-09-25T06:28:00.256Z,99705.22
2022-09-25T06:30:36.258Z,99700.78
2022-09-25T06:33:09.567Z,99696.34
2022-09-25T06:35:44.351Z,99703.28
2022-09-25T06:38:12.170Z,99704.50
2022-09-25T06:40:41.436Z,99704.31
2022-09-25T06:43:14.138Z,99707.28
2022-09-25T06:45:42.688Z,99713.50
2022-09-25T06:48:15.704Z,99708.19
2022-09-25T06:50:48.323Z,99703.63
2022-09-25T06:53:47.914Z,99708.75
2022-09-25T06:56:15.538Z,99706.59
2022-09-25T06:58:42.820Z,99713.53
2022-09-25T07:01:11.727Z,99711.25
2022-09-25T07:03:46.013Z,99710.47
2022-09-25T07:06:18.379Z,99712.41
2022-09-25T07:08:47.984Z,99714.34
2022-09-25T07:11:20.318Z,99705.03
2022-09-25T07:13:52.229Z,99703.16
2022-09-25T07:16:20.383Z,99699.59
2022-09-25T07:18:48.089Z,99700.47
2022-09-25T07:21:17.535Z,99695.81
2022-09-25T07:23:48.720Z,99692.22
2022-09-25T07:26:22.354Z,99694.56
2022-09-25T07:28:57.671Z,99697.03
2022-09-25T07:31:27.400Z,99697.69
2022-09-25T07:33:55.330Z,99688.63
2022-09-25T07:36:22.703Z,99689.19
2022-09-25T07:38:51.218Z,99696.53
2022-09-25T07:41:19.613Z,99695.13
2022-09-25T07:43:46.899Z,99685.47
2022-09-25T07:46:14.492Z,99689.44
2022-09-25T07:48:41.794Z,99680.75
2022-09-25T07:51:11.135Z,99670.63
2022-09-25T07:53:39.525Z,99673.97
2022-09-25T07:56:07.503Z,99668.69
2022-09-25T07:59:10.165Z,99665.37
2022-09-25T08:01:43.460Z,99670.38
2022-09-25T08:04:11.840Z,99668.16
2022-09-25T08:06:39.195Z,99666.50
2022-09-25T08:09:10.433Z,99672.47
2022-09-25T08:11:38.509Z,99667.72
2022-09-25T08:14:05.820Z,99662.25
2022-09-25T08:16:33.123Z,99659.94
2022-09-25T08:19:00.700Z,99667.84
2022-09-25T08:21:28.011Z,99661.88
2022-09-25T08:23:56.496Z,99665.63
2022-09-25T08:26:24.083Z,99672.41
2022-09-25T08:28:51.993Z,99675.78
2022-09-25T08:31:19.842Z,99680.84
2022-09-25T08:33:49.077Z,99680.25
2022-09-25T08:36:17.376Z,99678.06
2022-09-25T08:38:45.479Z,99681.66
2022-09-25T08:41:22.340Z,99685.25
2022-09-25T08:44:05.937Z,99682.31
2022-09-25T08:46:59.938Z,99677.94
2022-09-25T08:49:31.631Z,99672.47
2022-09-25T08:52:02.002Z,99669.44
2022-09-25T08:54:31.238Z,99673.22
2022-09-25T08:57:04.300Z,99675.13
2022-09-25T08:59:38.574Z,99671.78
2022-09-25T09:02:24.779Z,99673.28
2022-09-25T09:05:01.181Z,99678.28
2022-09-25T09:07:44.632Z,99676.28
2022-09-25T09:10:28.828Z,99679.81
2022-09-25T09:13:05.439Z,99680.75
2022-09-25T09:15:57.305Z,99679.88
2022-09-25T09:18:26.484Z,99682.13
2022-09-25T09:20:58.516Z,99680.25
2022-09-25T09:23:34.088Z,99684.91
2022-09-25T09:26:22.472Z,99683.53
2022-09-25T09:29:20.374Z,99685.47
2022-09-25T09:32:18.309Z,99687.19
2022-09-25T09:35:12.771Z,99683.22
2022-09-25T09:37:50.062Z,99679.94
2022-09-25T09:40:20.883Z,99688.72
2022-09-25T09:43:10.428Z,99692.78
2022-09-25T09:45:54.191Z,99679.09
2022-09-25T09:48:34.056Z,99678.63
2022-09-25T09:51:07.535Z,99683.31
2022-09-25T09:53:42.975Z,99683.13
2022-09-25T09:56:23.157Z,99675.47
2022-09-25T09:58:54.412Z,99682.78
2022-09-25T10:01:41.714Z,99671.50
2022-09-25T10:04:17.047Z,99669.41
2022-09-25T10:06:50.764Z,99674.50
2022-09-25T10:09:18.588Z,99679.06
2022-09-25T10:11:49.100Z,99679.44
2022-09-25T10:14:21.858Z,99678.12
2022-09-25T10:16:50.715Z,99680.16
2022-09-25T10:19:22.204Z,99676.34
2022-09-25T10:21:55.790Z,99672.75
2022-09-25T10:24:54.955Z,99689.09
2022-09-25T10:27:32.806Z,99677.22
2022-09-25T10:30:14.633Z,99685.56
2022-09-25T10:33:02.174Z,99683.56
2022-09-25T10:35:38.581Z,99684.94
2022-09-25T10:38:35.198Z,99683.84
2022-09-25T10:41:14.463Z,99678.81
2022-09-25T10:43:52.988Z,99671.63
2022-09-25T10:46:52.388Z,99674.97
2022-09-25T10:49:46.003Z,99674.97
2022-09-25T10:52:15.371Z,99661.41
2022-09-25T10:54:45.713Z,99654.75
2022-09-25T10:57:18.074Z,99658.44
2022-09-25T11:00:22.224Z,99665.03
2022-09-25T11:02:53.689Z,99654.09
2022-09-25T11:05:26.877Z,99640.34
2022-09-25T11:07:57.068Z,99639.31
2022-09-25T11:10:28.189Z,99637.56
2022-09-25T11:12:56.699Z,99638.62
2022-09-25T11:15:26.649Z,99638.06
2022-09-25T11:17:58.590Z,99644.09
2022-09-25T11:20:29.869Z,99644.00
2022-09-25T11:23:20.719Z,99644.81
2022-09-25T11:25:54.038Z,99647.69
2022-09-25T11:28:34.828Z,99644.81
2022-09-25T11:31:11.517Z,99644.22
2022-09-25T11:33:42.846Z,99646.19
2022-09-25T11:36:14.794Z,99654.78
2022-09-25T11:39:55.478Z,99649.63
2022-09-25T11:42:40.964Z,99650.84
2022-09-25T11:45:19.275Z,99647.03
2022-09-25T11:47:53.541Z,99644.13
2022-09-25T11:50:29.067Z,99647.38
2022-09-25T11:53:14.991Z,99642.63
2022-09-25T11:56:18.876Z,99643.75
2022-09-25T11:58:55.621Z,99645.53
2022-09-25T12:01:35.066Z,99637.97
2022-09-25T12:04:36.986Z,99643.41
2022-09-25T12:07:32.526Z,99641.75
2022-09-25T12:10:12.275Z,99642.37
2022-09-25T12:12:52.070Z,99632.94
2022-09-25T12:15:22.943Z,99631.28
2022-09-25T12:18:00.134Z,99638.38
2022-09-25T12:20:51.241Z,99627.50
2022-09-25T12:23:30.001Z,99635.69
2022-09-25T12:26:06.056Z,99635.28
2022-09-25T12:28:54.277Z,99638.78
2022-09-25T12:31:40.144Z,99636.66
2022-09-25T12:34:29.675Z,99626.41
2022-09-25T12:37:25.401Z,99632.25
2022-09-25T12:40:03.765Z,99634.38
2022-09-25T12:43:03.766Z,99627.50
2022-09-25T12:46:12.617Z,99623.44
2022-09-25T12:48:48.582Z,99618.44
2022-09-25T12:51:25.266Z,99621.13
2022-09-25T12:53:57.916Z,99612.37
2022-09-25T12:56:43.629Z,99609.88
2022-09-25T12:59:40.311Z,99613.09
2022-09-25T13:02:54.840Z,99615.66
2022-09-25T13:05:36.016Z,99612.97
2022-09-25T13:08:21.231Z,99610.47
2022-09-25T13:10:54.713Z,99608.88
2022-09-25T13:13:25.947Z,99604.50
2022-09-25T13:15:59.602Z,99605.34
2022-09-25T13:18:29.866Z,99610.81
2022-09-25T13:21:16.142Z,99609.59
2022-09-25T13:23:43.532Z,99610.38
2022-09-25T13:26:16.949Z,99616.59
2022-09-25T13:28:57.772Z,99617.56
2022-09-25T13:31:27.844Z,99609.59
2022-09-25T13:34:05.881Z,99610.78
2022-09-25T13:36:45.573Z,99615.16
2022-09-25T13:39:37.351Z,99615.59
2022-09-25T13:42:08.664Z,99609.75
2022-09-25T13:44:42.225Z,99605.34
2022-09-25T13:47:23.601Z,99605.03
2022-09-25T13:49:54.981Z,99597.75
2022-09-25T13:53:14.803Z,99600.62
2022-09-25T13:56:03.136Z,99603.63
2022-09-25T13:59:00.302Z,99598.34
2022-09-25T14:01:34.593Z,99606.16
2022-09-25T14:04:10.968Z,99604.56
2022-09-25T14:06:39.529Z,99603.13
2022-09-25T14:09:18.734Z,99609.38
2022-09-25T14:12:12.615Z,99599.84
2022-09-25T14:14:52.615Z,99605.78
2022-09-25T14:17:21.544Z,99594.06
2022-09-25T14:19:52.076Z,99597.09
2022-09-25T14:22:27.361Z,99595.09
2022-09-25T14:24:54.915Z,99589.50
2022-09-25T14:27:26.167Z,99582.63
2022-09-25T14:30:09.912Z,99586.16
2022-09-25T14:32:57.286Z,99580.72
2022-09-25T14:35:40.683Z,99574.63
2022-09-25T14:38:21.101Z,99584.00
2022-09-25T14:41:21.443Z,99579.22
2022-09-25T14:44:09.874Z,99582.72
2022-09-25T14:46:37.200Z,99588.06
2022-09-25T14:49:27.502Z,99578.66
2022-09-25T14:52:02.137Z,99571.50
2022-09-25T14:54:32.555Z,99579.22
2022-09-25T14:57:00.828Z,99580.03
2022-09-25T14:59:33.679Z,99581.56
2022-09-25T15:02:02.882Z,99579.47
2022-09-25T15:04:32.806Z,99574.13
2022-09-25T15:07:13.032Z,99573.06
2022-09-25T15:09:47.419Z,99565.28
2022-09-25T15:12:19.072Z,99559.22
2022-09-25T15:15:03.237Z,99580.25
2022-09-25T15:17:32.632Z,99582.56
2022-09-25T15:20:04.437Z,99576.19
2022-09-25T15:22:38.670Z,99572.53
2022-09-25T15:25:08.049Z,99565.91
2022-09-25T15:27:42.474Z,99562.47
2022-09-25T15:30:17.241Z,99564.47
2022-09-25T15:32:48.028Z,99559.37
2022-09-25T15:35:23.585Z,99557.69
2022-09-25T15:38:10.600Z,99551.87
2022-09-25T15:40:38.614Z,99554.13
2022-09-25T15:43:12.745Z,99554.13
2022-09-25T15:45:52.386Z,99559.06
2022-09-25T15:48:22.784Z,99556.34
2022-09-25T15:50:51.023Z,99550.00
2022-09-25T15:53:49.464Z,99551.78
2022-09-25T15:56:47.775Z,99541.69
2022-09-25T15:59:24.944Z,99541.59
2022-09-25T16:02:11.777Z,99536.56
2022-09-25T16:04:49.535Z,99534.19
2022-09-25T16:07:25.886Z,99533.53
2022-09-25T16:09:58.392Z,99532.66
2022-09-25T16:12:26.043Z,99537.75
2022-09-25T16:14:55.120Z,99535.78
2022-09-25T16:17:39.403Z,99531.38
2022-09-25T16:20:29.946Z,99529.81
2022-09-25T16:22:59.748Z,99524.22
2022-09-25T16:25:42.357Z,99531.16
2022-09-25T16:28:16.008Z,99525.50
2022-09-25T16:31:04.075Z,99521.91
2022-09-25T16:33:47.737Z,99521.06
2022-09-25T16:36:17.867Z,99521.19
2022-09-25T16:39:06.889Z,99524.72
2022-09-25T16:41:35.948Z,99514.00
2022-09-25T16:44:18.291Z,99513.31
2022-09-25T16:47:18.817Z,99508.84
2022-09-25T16:49:48.801Z,99508.59
2022-09-25T16:52:20.569Z,99503.75
2022-09-25T16:54:52.954Z,99501.25
2022-09-25T16:57:27.683Z,99498.63
2022-09-25T16:59:57.711Z,99492.53
2022-09-25T17:02:36.362Z,99485.72
2022-09-25T17:05:28.526Z,99487.34
2022-09-25T17:08:15.108Z,99488.28
2022-09-25T17:10:42.638Z,99491.00
2022-09-25T17:13:10.952Z,99488.09
2022-09-25T17:15:40.434Z,99485.34
2022-09-25T17:18:18.594Z,99480.22
2022-09-25T17:20:46.538Z,99474.75
2022-09-25T17:23:14.772Z,99471.78
2022-09-25T17:25:49.480Z,99474.69
2022-09-25T17:28:17.155Z,99478.69
2022-09-25T17:30:45.230Z,99472.19
2022-09-25T17:33:16.035Z,99470.00
2022-09-25T17:35:50.672Z,99467.47
2022-09-25T17:38:18.132Z,99465.25
2022-09-25T17:40:47.628Z,99462.66
2022-09-25T17:43:15.495Z,99464.38
2022-09-25T17:45:49.185Z,99462.28
2022-09-25T17:48:23.438Z,99468.22
2022-09-25T17:51:02.866Z,99463.94
2022-09-25T17:53:32.508Z,99464.41
2022-09-25T17:56:00.822Z,99457.03
2022-09-25T17:58:30.430Z,99459.03
2022-09-25T18:00:59.794Z,99449.28
2022-09-25T18:03:30.316Z,99445.00
2022-09-25T18:05:58.367Z,99452.87
2022-09-25T18:08:31.101Z,99455.34
2022-09-25T18:10:58.864Z,99459.59
2022-09-25T18:13:26.184Z,99451.84
2022-09-25T18:15:55.902Z,99454.63
2022-09-25T18:18:24.262Z,99452.25
2022-09-25T18:21:10.171Z,99457.09
2022-09-25T18:23:38.690Z,99458.19
2022-09-25T18:26:08.183Z,99455.50
2022-09-25T18:28:35.731Z,99455.19
2022-09-25T18:31:03.421Z,99460.34
2022-09-25T18:33:31.151Z,99463.81
2022-09-25T18:35:59.960Z,99456.22
2022-09-25T18:38:27.606Z,99456.41
2022-09-25T18:40:55.106Z,99449.63
2022-09-25T18:43:22.490Z,99457.34
2022-09-25T18:45:53.123Z,99452.63
2022-09-25T18:48:20.922Z,99460.47
2022-09-25T18:50:49.529Z,99459.50
2022-09-25T18:53:17.610Z,99464.72
2022-09-25T18:55:45.064Z,99462.00
2022-09-25T18:58:31.173Z,99462.19
2022-09-25T19:00:58.848Z,99464.41
2022-09-25T19:03:26.322Z,99456.69
2022-09-25T19:06:02.871Z,99452.06
2022-09-25T19:08:31.229Z,99460.53
2022-09-25T19:10:59.109Z,99451.00
2022-09-25T19:13:27.310Z,99451.56
2022-09-25T19:15:56.220Z,99451.66
2022-09-25T19:18:23.609Z,99445.53
2022-09-25T19:20:56.071Z,99444.53
2022-09-25T19:23:24.741Z,99443.22
2022-09-25T19:25:56.877Z,99442.31
2022-09-25T19:28:25.485Z,99441.34
2022-09-25T19:31:00.673Z,99433.44
2022-09-25T19:33:32.139Z,99429.94
2022-09-25T19:36:00.909Z,99436.41
2022-09-25T19:38:31.438Z,99431.84
2022-09-25T19:40:59.126Z,99425.47
2022-09-25T19:43:26.618Z,99426.16
2022-09-25T19:45:55.461Z,99434.06
2022-09-25T19:48:23.706Z,99439.19
2022-09-25T19:50:51.061Z,99437.75
2022-09-25T19:53:19.052Z,99437.84
2022-09-25T19:55:54.064Z,99439.31
2022-09-25T19:58:25.204Z,99433.03
2022-09-25T20:01:14.926Z,99428.03
2022-09-25T20:03:42.600Z,99422.91
2022-09-25T20:06:10.730Z,99426.50
2022-09-25T20:08:38.794Z,99421.97
2022-09-25T20:11:12.326Z,99428.75
2022-09-25T20:13:39.625Z,99423.66
2022-09-25T20:16:12.895Z,99423.56
2022-09-25T20:19:07.087Z,99422.22
2022-09-25T20:21:37.124Z,99433.62
2022-09-25T20:24:06.700Z,99435.19
2022-09-25T20:26:35.867Z,99438.69
2022-09-25T20:29:14.954Z,99436.78
2022-09-25T20:31:44.234Z,99430.03
2022-09-25T20:34:16.977Z,99432.75
2022-09-25T20:36:44.692Z,99434.47
2022-09-25T20:39:15.566Z,99424.84
2022-09-25T20:41:46.101Z,99426.66
2022-09-25T20:44:13.856Z,99434.78
2022-09-25T20:46:42.003Z,99422.94
2022-09-25T20:49:10.636Z,99422.53
2022-09-25T20:51:38.336Z,99412.31
2022-09-25T20:54:07.563Z,99409.69
2022-09-25T20:56:36.685Z,99404.59
2022-09-25T20:59:05.180Z,99412.38
2022-09-25T21:01:36.515Z,99411.72
2022-09-25T21:04:07.764Z,99415.84
2022-09-25T21:06:37.005Z,99417.69
2022-09-25T21:09:08.053Z,99423.06
2022-09-25T21:11:35.618Z,99416.22
2022-09-25T21:14:03.603Z,99403.16
2022-09-25T21:16:32.448Z,99400.56
2022-09-25T21:19:04.024Z,99404.84
2022-09-25T21:21:33.222Z,99402.78
2022-09-25T21:24:02.207Z,99397.69
2022-09-25T21:26:30.847Z,99393.38
2022-09-25T21:29:02.311Z,99385.44
2022-09-25T21:31:43.756Z,99382.22
2022-09-25T21:34:15.332Z,99381.00
2022-09-25T21:36:43.526Z,99384.06
2022-09-25T21:39:11.453Z,99370.94
2022-09-25T21:41:39.439Z,99364.94
2022-09-25T21:44:12.008Z,99364.62
2022-09-25T21:46:39.672Z,99357.62
2022-09-25T21:49:07.787Z,99365.53
2022-09-25T21:51:40.133Z,99353.47
2022-09-25T21:54:08.552Z,99351.75
2022-09-25T21:56:36.555Z,99363.50
2022-09-25T21:59:08.629Z,99356.47
2022-09-25T22:01:38.759Z,99359.28
2022-09-25T22:04:07.835Z,99352.87
2022-09-25T22:06:41.286Z,99352.13
2022-09-25T22:09:11.706Z,99351.16
2022-09-25T22:11:39.910Z,99349.28
2022-09-25T22:14:10.845Z,99343.50
2022-09-25T22:16:41.319Z,99345.00
2022-09-25T22:19:20.359Z,99342.00
2022-09-25T22:21:49.262Z,99338.41
2022-09-25T22:24:17.139Z,99343.28
2022-09-25T22:26:45.859Z,99335.81
2022-09-25T22:29:13.864Z,99341.66
2022-09-25T22:31:44.417Z,99342.53
2022-09-25T22:34:18.160Z,99322.66
2022-09-25T22:37:23.853Z,99331.09
2022-09-25T22:39:51.169Z,99332.19
2022-09-25T22:42:18.720Z,99320.84
2022-09-25T22:44:46.021Z,99329.22
2022-09-25T22:47:13.315Z,99324.41
2022-09-25T22:49:40.875Z,99324.59
2022-09-25T22:52:08.419Z,99324.56
2022-09-25T22:54:35.721Z,99325.91
2022-09-25T22:57:03.337Z,99314.59
2022-09-25T22:59:30.874Z,99312.38
2022-09-25T23:01:58.167Z,99302.94
2022-09-25T23:04:25.834Z,99309.53
2022-09-25T23:06:53.409Z,99301.63
2022-09-25T23:09:24.906Z,99296.28
2022-09-25T23:11:54.629Z,99298.13
2022-09-25T23:14:24.772Z,99301.91
2022-09-25T23:16:54.645Z,99299.41
2022-09-25T23:19:23.174Z,99280.16
2022-09-25T23:21:51.376Z,99272.44
2022-09-25T23:24:19.735Z,99269.03
2022-09-25T23:26:47.601Z,99272.31
2022-09-25T23:29:17.407Z,99270.78
2022-09-25T23:31:45.853Z,99275.47
2022-09-25T23:34:14.488Z,99274.66
2022-09-25T23:36:41.992Z,99269.69
2022-09-25T23:39:11.122Z,99261.91
2022-09-25T23:41:39.693Z,99264.47
2022-09-25T23:44:09.119Z,99257.06
2022-09-25T23:46:39.352Z,99260.34
2022-09-25T23:49:07.419Z,99258.41
2022-09-25T23:51:35.364Z,99252.28
2022-09-25T23:54:03.384Z,99253.44
2022-09-25T23:56:32.470Z,99247.22
2022-09-25T23:59:03.348Z,99253.41
